createdAt,value
2023-03-07T00:02:04.159Z,3.80
2023-03-07T00:04:52.649Z,3.90
2023-03-07T00:07:38.746Z,3.90
2023-03-07T00:10:25.945Z,3.90
2023-03-07T00:13:12.224Z,3.90
2023-03-07T00:16:12.810Z,3.80
2023-03-07T00:18:58.870Z,3.80
2023-03-07T00:21:45.460Z,3.70
2023-03-07T00:24:31.910Z,3.70
2023-03-07T00:27:18.146Z,3.60
2023-03-07T00:30:05.296Z,3.60
2023-03-07T00:32:52.172Z,3.60
2023-03-07T00:35:38.284Z,3.70
2023-03-07T00:38:25.312Z,3.70
2023-03-07T00:41:16.765Z,3.70
2023-03-07T00:44:03.421Z,3.70
2023-03-07T00:46:49.496Z,3.80
2023-03-07T00:49:35.566Z,3.70
2023-03-07T00:52:22.147Z,3.70
2023-03-07T00:55:09.239Z,3.80
2023-03-07T00:57:55.678Z,3.80
2023-03-07T01:00:41.652Z,3.80
2023-03-07T01:03:28.323Z,3.80
2023-03-07T01:06:16.704Z,3.80
2023-03-07T01:09:07.388Z,3.80
2023-03-07T01:11:53.811Z,3.80
2023-03-07T01:14:40.392Z,3.60
2023-03-07T01:17:26.846Z,3.60
2023-03-07T01:20:12.975Z,3.60
2023-03-07T01:23:00.115Z,3.60
2023-03-07T01:25:46.389Z,3.60
2023-03-07T01:28:32.552Z,3.50
2023-03-07T01:31:19.274Z,3.50
2023-03-07T01:34:06.044Z,3.50
2023-03-07T01:36:54.339Z,3.40
2023-03-07T01:39:40.283Z,3.40
2023-03-07T01:42:31.300Z,3.30
2023-03-07T01:45:34.496Z,3.30
2023-03-07T01:48:21.709Z,3.30
2023-03-07T01:51:08.510Z,3.40
2023-03-07T01:53:57.312Z,3.40
2023-03-07T01:56:44.234Z,3.40
2023-03-07T01:59:35.465Z,3.40
2023-03-07T02:02:22.965Z,3.30
2023-03-07T02:05:12.051Z,3.30
2023-03-07T02:08:02.239Z,3.30
2023-03-07T02:10:52.438Z,3.30
2023-03-07T02:13:38.950Z,3.20
2023-03-07T02:16:26.020Z,3.20
2023-03-07T02:19:21.515Z,3.20
2023-03-07T02:22:18.988Z,3.20
2023-03-07T02:25:12.645Z,3.10
2023-03-07T02:27:59.154Z,3.10
2023-03-07T02:31:00.846Z,3.10
2023-03-07T02:33:50.168Z,3.10
2023-03-07T02:36:37.277Z,3.10
2023-03-07T02:39:43.188Z,3.10
2023-03-07T02:42:33.366Z,3.10
2023-03-07T02:45:24.941Z,3.10
2023-03-07T02:48:10.968Z,3.20
2023-03-07T02:50:57.444Z,3.10
2023-03-07T02:53:44.119Z,3.20
2023-03-07T02:56:31.205Z,3.20
2023-03-07T02:59:17.384Z,3.10
2023-03-07T03:02:03.210Z,3.20
2023-03-07T03:04:49.244Z,3.20
2023-03-07T03:07:35.099Z,3.20
2023-03-07T03:10:21.550Z,3.20
2023-03-07T03:13:08.218Z,3.10
2023-03-07T03:15:57.959Z,3.10
2023-03-07T03:18:43.991Z,3.10
2023-03-07T03:21:29.970Z,3.10
2023-03-07T03:24:16.459Z,3.10
2023-03-07T03:27:05.121Z,3.20
2023-03-07T03:29:54.405Z,3.20
2023-03-07T03:32:41.801Z,3.20
2023-03-07T03:35:29.807Z,3.20
2023-03-07T03:38:16.130Z,3.20
2023-03-07T03:41:11.178Z,3.10
2023-03-07T03:43:58.345Z,3.10
2023-03-07T03:46:48.502Z,3.10
2023-03-07T03:49:36.539Z,3.10
2023-03-07T03:52:23.467Z,3.10
2023-03-07T03:55:09.960Z,3.10
2023-03-07T03:57:56.300Z,3.20
2023-03-07T04:00:44.208Z,3.10
2023-03-07T04:03:30.075Z,3.10
2023-03-07T04:06:20.772Z,3.10
2023-03-07T04:09:06.951Z,3.10
2023-03-07T04:11:54.792Z,3.10
2023-03-07T04:14:41.220Z,3.10
2023-03-07T04:17:27.837Z,3.10
2023-03-07T04:20:17.621Z,3.10
2023-03-07T04:23:05.559Z,3.00
2023-03-07T04:25:57.535Z,3.10
2023-03-07T04:28:49.346Z,3.10
2023-03-07T04:31:39.963Z,3.10
2023-03-07T04:34:26.931Z,3.00
2023-03-07T04:37:12.970Z,2.90
2023-03-07T04:39:58.894Z,2.90
2023-03-07T04:42:45.396Z,2.80
2023-03-07T04:45:34.950Z,2.80
2023-03-07T04:48:22.938Z,2.80
2023-03-07T04:51:09.377Z,2.80
2023-03-07T04:53:56.133Z,2.80
2023-03-07T04:56:42.592Z,2.90
2023-03-07T04:59:30.568Z,2.80
2023-03-07T05:02:17.237Z,2.80
2023-03-07T05:05:04.692Z,2.80
2023-03-07T05:07:51.200Z,2.80
2023-03-07T05:10:37.602Z,2.70
2023-03-07T05:13:24.228Z,2.70
2023-03-07T05:16:10.491Z,2.60
2023-03-07T05:18:57.024Z,2.50
2023-03-07T05:21:44.139Z,2.50
2023-03-07T05:24:30.932Z,2.40
2023-03-07T05:27:17.998Z,2.40
2023-03-07T05:30:05.762Z,2.40
2023-03-07T05:32:51.888Z,2.40
2023-03-07T05:35:39.627Z,2.30
2023-03-07T05:38:27.133Z,2.30
2023-03-07T05:41:13.618Z,2.20
2023-03-07T05:44:03.280Z,2.20
2023-03-07T05:46:49.535Z,2.20
2023-03-07T05:49:35.976Z,2.20
2023-03-07T05:52:21.969Z,2.10
2023-03-07T05:55:09.080Z,2.10
2023-03-07T05:57:55.079Z,2.20
2023-03-07T06:00:41.574Z,2.20
2023-03-07T06:03:28.138Z,2.20
2023-03-07T06:06:14.084Z,2.10
2023-03-07T06:09:00.955Z,2.10
2023-03-07T06:11:47.620Z,2.10
2023-03-07T06:14:33.525Z,2.10
2023-03-07T06:17:19.579Z,2.10
2023-03-07T06:20:06.596Z,2.10
2023-03-07T06:22:52.746Z,2.20
2023-03-07T06:25:39.334Z,2.20
2023-03-07T06:28:25.939Z,2.30
2023-03-07T06:31:15.670Z,2.30
2023-03-07T06:34:02.727Z,2.40
2023-03-07T06:36:48.900Z,2.50
2023-03-07T06:39:35.319Z,2.50
2023-03-07T06:42:22.716Z,2.60
2023-03-07T06:45:09.479Z,2.60
2023-03-07T06:47:55.923Z,2.70
2023-03-07T06:50:41.952Z,2.80
2023-03-07T06:53:28.948Z,2.90
2023-03-07T06:56:15.479Z,3.00
2023-03-07T06:59:02.934Z,3.10
2023-03-07T07:01:49.948Z,3.10
2023-03-07T07:04:37.793Z,3.20
2023-03-07T07:07:25.056Z,3.20
2023-03-07T07:10:13.026Z,3.20
2023-03-07T07:12:59.204Z,3.30
2023-03-07T07:15:46.711Z,3.20
2023-03-07T07:18:33.897Z,3.40
2023-03-07T07:21:20.294Z,3.50
2023-03-07T07:24:07.041Z,3.60
2023-03-07T07:26:55.849Z,3.70
2023-03-07T07:29:43.087Z,3.80
2023-03-07T07:32:29.695Z,3.80
2023-03-07T07:35:16.147Z,3.90
2023-03-07T07:38:03.530Z,4.10
2023-03-07T07:40:49.881Z,4.30
2023-03-07T07:43:36.480Z,4.50
2023-03-07T07:46:36.551Z,4.70
2023-03-07T07:49:24.638Z,4.90
2023-03-07T07:52:10.784Z,5.00
2023-03-07T07:54:58.851Z,5.10
2023-03-07T07:57:45.927Z,5.20
2023-03-07T08:00:32.541Z,5.50
2023-03-07T08:03:18.723Z,5.80
2023-03-07T08:06:05.410Z,5.80
2023-03-07T08:08:51.863Z,5.90
2023-03-07T08:11:37.844Z,5.90
2023-03-07T08:14:24.510Z,5.80
2023-03-07T08:17:10.708Z,5.70
2023-03-07T08:20:01.681Z,5.80
2023-03-07T08:22:50.506Z,5.90
2023-03-07T08:25:36.518Z,6.20
2023-03-07T08:28:22.868Z,6.30
2023-03-07T08:31:12.167Z,6.30
2023-03-07T08:33:58.428Z,6.20
2023-03-07T08:36:45.147Z,6.30
2023-03-07T08:39:31.109Z,6.60
2023-03-07T08:42:17.178Z,6.80
2023-03-07T08:45:03.206Z,7.10
2023-03-07T08:47:52.650Z,7.20
2023-03-07T08:50:39.362Z,7.40
2023-03-07T08:53:25.275Z,7.70
2023-03-07T08:56:48.647Z,7.80
2023-03-07T08:59:43.564Z,8.20
2023-03-07T09:02:29.489Z,8.60
2023-03-07T09:05:15.546Z,8.50
2023-03-07T09:08:01.960Z,8.30
2023-03-07T09:10:48.545Z,8.10
2023-03-07T09:13:43.071Z,8.30
2023-03-07T09:16:32.554Z,8.80
2023-03-07T09:19:18.917Z,9.10
2023-03-07T09:22:05.017Z,9.00
2023-03-07T09:24:51.542Z,8.90
2023-03-07T09:27:37.880Z,9.00
2023-03-07T09:30:25.362Z,9.20
2023-03-07T09:33:11.545Z,9.00
2023-03-07T09:35:57.570Z,9.00
2023-03-07T09:38:43.747Z,9.30
2023-03-07T09:41:48.038Z,9.70
2023-03-07T09:44:55.643Z,9.70
2023-03-07T09:48:35.546Z,9.40
2023-03-07T09:51:28.886Z,9.50
2023-03-07T09:54:47.438Z,10.00
2023-03-07T09:57:41.183Z,10.50
2023-03-07T10:00:41.244Z,10.50
2023-03-07T10:04:12.852Z,10.40
2023-03-07T10:07:02.213Z,10.80
2023-03-07T10:09:51.463Z,10.90
2023-03-07T10:12:58.009Z,10.80
2023-03-07T10:16:01.027Z,11.30
2023-03-07T10:19:23.788Z,11.60
2023-03-07T10:22:27.306Z,12.00
2023-03-07T10:25:34.141Z,12.20
2023-03-07T10:28:28.310Z,11.50
2023-03-07T10:31:42.776Z,10.90
2023-03-07T10:34:32.441Z,11.50
2023-03-07T10:37:26.975Z,11.90
2023-03-07T10:40:42.551Z,11.90
2023-03-07T10:43:33.967Z,12.10
2023-03-07T10:46:25.885Z,12.60
2023-03-07T10:49:29.594Z,12.70
2023-03-07T10:52:37.895Z,12.70
2023-03-07T10:55:39.501Z,12.90
2023-03-07T10:58:27.673Z,13.40
2023-03-07T11:01:20.616Z,13.70
2023-03-07T11:04:20.077Z,12.90
2023-03-07T11:07:23.332Z,12.00
2023-03-07T11:10:40.908Z,11.80
2023-03-07T11:13:27.047Z,11.90
2023-03-07T11:16:20.778Z,12.20
2023-03-07T11:19:44.830Z,12.30
2023-03-07T11:22:36.710Z,11.90
2023-03-07T11:25:26.483Z,12.50
2023-03-07T11:28:31.739Z,12.60
2023-03-07T11:31:35.253Z,11.90
2023-03-07T11:34:27.797Z,11.80
2023-03-07T11:37:46.234Z,12.20
2023-03-07T11:40:40.901Z,12.70
2023-03-07T11:44:00.879Z,13.00
2023-03-07T11:47:14.634Z,13.30
2023-03-07T11:50:17.303Z,12.50
2023-03-07T11:53:23.733Z,12.00
2023-03-07T11:56:24.730Z,12.30
2023-03-07T11:59:49.189Z,13.00
2023-03-07T12:03:03.098Z,12.90
2023-03-07T12:06:04.450Z,14.30
2023-03-07T12:09:02.758Z,14.60
2023-03-07T12:12:16.251Z,14.00
2023-03-07T12:15:37.701Z,13.80
2023-03-07T12:18:32.269Z,13.80
2023-03-07T12:21:27.296Z,14.60
2023-03-07T12:24:31.484Z,15.60
2023-03-07T12:27:41.234Z,16.50
2023-03-07T12:30:51.694Z,17.30
2023-03-07T12:34:10.200Z,18.10
2023-03-07T12:37:04.908Z,18.50
2023-03-07T12:39:54.173Z,18.10
2023-03-07T12:42:53.580Z,17.40
2023-03-07T12:46:00.409Z,17.10
2023-03-07T12:49:12.638Z,17.70
2023-03-07T12:52:04.596Z,17.90
2023-03-07T12:55:04.661Z,18.30
2023-03-07T12:58:16.392Z,17.80
2023-03-07T13:01:12.914Z,18.10
2023-03-07T13:04:30.368Z,17.60
2023-03-07T13:07:28.158Z,15.30
2023-03-07T13:10:22.283Z,15.30
2023-03-07T13:13:48.376Z,15.80
2023-03-07T13:16:38.733Z,17.20
2023-03-07T13:19:30.997Z,18.40
2023-03-07T13:22:16.747Z,19.20
2023-03-07T13:25:21.354Z,20.00
2023-03-07T13:28:46.437Z,20.40
2023-03-07T13:31:39.982Z,19.70
2023-03-07T13:34:46.867Z,19.50
2023-03-07T13:38:05.071Z,19.00
2023-03-07T13:40:53.303Z,17.80
2023-03-07T13:43:45.693Z,17.50
2023-03-07T13:46:47.046Z,16.30
2023-03-07T13:49:38.818Z,15.60
2023-03-07T13:52:31.912Z,15.50
2023-03-07T13:55:25.040Z,16.00
2023-03-07T13:58:35.529Z,16.20
2023-03-07T14:01:32.867Z,16.30
2023-03-07T14:04:40.696Z,15.70
2023-03-07T14:07:35.851Z,15.30
2023-03-07T14:10:28.421Z,15.10
2023-03-07T14:13:24.944Z,15.80
2023-03-07T14:16:28.967Z,15.70
2023-03-07T14:19:29.426Z,15.20
2023-03-07T14:22:31.669Z,14.80
2023-03-07T14:25:20.698Z,14.90
2023-03-07T14:28:27.823Z,14.90
2023-03-07T14:31:30.574Z,14.30
2023-03-07T14:34:21.157Z,13.60
2023-03-07T14:37:12.972Z,13.70
2023-03-07T14:39:59.192Z,13.70
2023-03-07T14:42:59.193Z,13.60
2023-03-07T14:46:20.426Z,13.90
2023-03-07T14:49:36.297Z,13.50
2023-03-07T14:52:31.155Z,13.00
2023-03-07T14:55:24.376Z,12.20
2023-03-07T14:58:17.598Z,11.60
2023-03-07T15:01:11.208Z,11.30
2023-03-07T15:03:57.864Z,11.40
2023-03-07T15:06:45.168Z,11.60
2023-03-07T15:09:33.617Z,11.90
2023-03-07T15:12:27.539Z,12.30
2023-03-07T15:15:37.069Z,12.50
2023-03-07T15:18:35.645Z,12.60
2023-03-07T15:21:26.324Z,12.60
2023-03-07T15:24:24.684Z,12.60
2023-03-07T15:27:15.073Z,12.20
2023-03-07T15:30:04.098Z,11.80
2023-03-07T15:33:13.648Z,11.70
2023-03-07T15:36:12.056Z,11.90
2023-03-07T15:39:26.907Z,11.90
2023-03-07T15:42:23.844Z,11.60
2023-03-07T15:45:32.955Z,11.40
2023-03-07T15:48:32.540Z,11.30
2023-03-07T15:51:24.177Z,11.20
2023-03-07T15:54:27.790Z,11.10
2023-03-07T15:57:23.452Z,11.00
2023-03-07T16:00:20.368Z,10.90
2023-03-07T16:03:27.938Z,10.40
2023-03-07T16:06:40.383Z,10.00
2023-03-07T16:09:26.618Z,9.70
2023-03-07T16:12:17.646Z,9.40
2023-03-07T16:15:04.159Z,9.40
2023-03-07T16:17:56.337Z,9.30
2023-03-07T16:20:42.794Z,9.30
2023-03-07T16:23:31.230Z,9.30
2023-03-07T16:26:23.631Z,9.00
2023-03-07T16:29:18.496Z,8.80
2023-03-07T16:32:05.251Z,8.80
2023-03-07T16:34:51.814Z,8.80
2023-03-07T16:37:37.606Z,8.70
2023-03-07T16:40:25.939Z,8.60
2023-03-07T16:43:25.960Z,8.50
2023-03-07T16:46:15.690Z,8.50
2023-03-07T16:49:02.071Z,8.30
2023-03-07T16:52:03.012Z,8.30
2023-03-07T16:54:51.531Z,8.20
2023-03-07T16:57:37.520Z,8.20
2023-03-07T17:00:25.574Z,8.10
2023-03-07T17:03:11.551Z,8.00
2023-03-07T17:05:57.689Z,8.00
2023-03-07T17:08:45.251Z,7.90
2023-03-07T17:11:31.501Z,7.80
2023-03-07T17:14:19.590Z,7.70
2023-03-07T17:17:06.471Z,7.50
2023-03-07T17:19:52.627Z,7.50
2023-03-07T17:22:38.744Z,7.40
2023-03-07T17:25:25.975Z,7.40
2023-03-07T17:28:15.389Z,7.40
2023-03-07T17:31:01.551Z,7.30
2023-03-07T17:33:47.572Z,7.30
2023-03-07T17:36:33.599Z,7.20
2023-03-07T17:39:20.483Z,7.10
2023-03-07T17:42:06.985Z,7.00
2023-03-07T17:44:53.228Z,6.90
2023-03-07T17:47:40.015Z,6.90
2023-03-07T17:50:26.357Z,6.80
2023-03-07T17:53:12.545Z,6.70
2023-03-07T17:56:09.747Z,6.60
2023-03-07T17:58:55.778Z,6.40
2023-03-07T18:01:42.092Z,6.30
2023-03-07T18:04:31.048Z,6.20
2023-03-07T18:07:19.721Z,6.10
2023-03-07T18:10:08.863Z,6.00
2023-03-07T18:12:55.216Z,6.00
2023-03-07T18:15:44.721Z,5.90
2023-03-07T18:18:33.357Z,5.90
2023-03-07T18:21:23.698Z,6.00
2023-03-07T18:24:18.421Z,6.00
2023-03-07T18:27:08.475Z,6.00
2023-03-07T18:29:54.353Z,6.00
2023-03-07T18:32:40.350Z,5.90
2023-03-07T18:35:26.824Z,5.70
2023-03-07T18:38:12.898Z,5.50
2023-03-07T18:41:08.741Z,5.30
2023-03-07T18:43:56.038Z,5.10
2023-03-07T18:46:42.394Z,4.90
2023-03-07T18:49:28.191Z,4.80
2023-03-07T18:52:14.150Z,4.80
2023-03-07T18:55:00.289Z,4.80
2023-03-07T18:57:46.134Z,4.90
2023-03-07T19:00:32.438Z,4.90
2023-03-07T19:03:18.603Z,5.00
2023-03-07T19:06:04.608Z,4.90
2023-03-07T19:08:50.863Z,4.90
2023-03-07T19:11:37.212Z,4.80
2023-03-07T19:14:23.568Z,4.90
2023-03-07T19:17:09.924Z,4.80
2023-03-07T19:19:59.269Z,4.90
2023-03-07T19:22:45.560Z,4.90
2023-03-07T19:25:35.202Z,5.00
2023-03-07T19:28:21.216Z,4.90
2023-03-07T19:31:08.726Z,5.00
2023-03-07T19:33:55.025Z,4.90
2023-03-07T19:36:41.663Z,4.60
2023-03-07T19:39:28.268Z,4.50
2023-03-07T19:42:14.464Z,4.40
2023-03-07T19:45:00.433Z,4.30
2023-03-07T19:47:46.555Z,4.30
2023-03-07T19:50:32.848Z,4.20
2023-03-07T19:53:19.831Z,4.10
2023-03-07T19:56:10.956Z,4.00
2023-03-07T19:58:58.893Z,3.90
2023-03-07T20:01:45.190Z,4.00
2023-03-07T20:04:31.071Z,4.00
2023-03-07T20:07:16.981Z,4.00
2023-03-07T20:10:03.444Z,4.10
2023-03-07T20:12:51.727Z,4.20
2023-03-07T20:15:37.916Z,4.30
2023-03-07T20:18:23.827Z,4.40
2023-03-07T20:21:12.608Z,4.50
2023-03-07T20:23:59.639Z,4.50
2023-03-07T20:26:47.441Z,4.50
2023-03-07T20:29:33.321Z,4.60
2023-03-07T20:32:19.707Z,4.60
2023-03-07T20:35:06.259Z,4.60
2023-03-07T20:37:52.566Z,4.60
2023-03-07T20:40:38.460Z,4.60
2023-03-07T20:43:24.503Z,4.70
2023-03-07T20:46:13.163Z,4.70
2023-03-07T20:49:00.719Z,4.80
2023-03-07T20:51:48.661Z,4.80
2023-03-07T20:54:34.899Z,4.80
2023-03-07T20:57:21.240Z,4.80
2023-03-07T21:00:08.566Z,4.80
2023-03-07T21:03:05.400Z,4.80
2023-03-07T21:06:01.221Z,4.80
2023-03-07T21:08:47.609Z,4.80
2023-03-07T21:11:35.542Z,4.80
2023-03-07T21:14:22.113Z,4.70
2023-03-07T21:17:09.162Z,4.80
2023-03-07T21:19:55.029Z,4.80
2023-03-07T21:22:41.159Z,4.80
2023-03-07T21:25:27.090Z,4.90
2023-03-07T21:28:13.498Z,4.90
2023-03-07T21:31:00.783Z,5.00
2023-03-07T21:33:49.118Z,5.00
2023-03-07T21:36:35.472Z,5.00
2023-03-07T21:39:24.512Z,5.00
2023-03-07T21:42:10.467Z,5.00
2023-03-07T21:44:56.452Z,5.00
2023-03-07T21:47:42.291Z,5.00
2023-03-07T21:50:28.166Z,5.00
2023-03-07T21:53:13.954Z,4.90
2023-03-07T21:56:02.824Z,4.80
2023-03-07T21:58:50.104Z,4.80
2023-03-07T22:01:36.579Z,4.90
2023-03-07T22:04:22.836Z,4.80
2023-03-07T22:07:08.659Z,4.80
2023-03-07T22:09:54.594Z,4.80
2023-03-07T22:12:40.703Z,4.80
2023-03-07T22:15:26.699Z,4.70
2023-03-07T22:18:12.725Z,4.80
2023-03-07T22:20:59.540Z,4.80
2023-03-07T22:23:45.928Z,4.80
2023-03-07T22:26:32.778Z,4.80
2023-03-07T22:29:18.589Z,4.90
2023-03-07T22:32:04.968Z,4.80
2023-03-07T22:34:51.865Z,4.80
2023-03-07T22:37:38.352Z,4.80
2023-03-07T22:40:24.488Z,4.80
2023-03-07T22:43:10.331Z,4.90
2023-03-07T22:45:56.202Z,4.80
2023-03-07T22:48:42.154Z,4.90
2023-03-07T22:51:28.219Z,4.90
2023-03-07T22:54:14.111Z,4.90
2023-03-07T22:57:00.091Z,4.90
2023-03-07T22:59:48.471Z,5.00
2023-03-07T23:02:34.266Z,5.00
2023-03-07T23:05:20.190Z,4.90
2023-03-07T23:08:06.270Z,4.90
2023-03-07T23:10:52.164Z,4.90
2023-03-07T23:13:38.938Z,4.90
2023-03-07T23:16:28.171Z,5.00
2023-03-07T23:19:14.304Z,5.00
2023-03-07T23:22:00.348Z,4.90
2023-03-07T23:24:46.368Z,4.90
2023-03-07T23:27:33.245Z,4.90
2023-03-07T23:30:20.188Z,4.90
2023-03-07T23:33:06.850Z,4.90
2023-03-07T23:35:53.078Z,4.90
2023-03-07T23:38:39.720Z,5.00
2023-03-07T23:41:26.515Z,5.00
2023-03-07T23:44:13.009Z,5.00
2023-03-07T23:46:59.276Z,5.00
2023-03-07T23:49:45.315Z,5.00
2023-03-07T23:52:31.167Z,5.00
2023-03-07T23:55:17.405Z,5.00
2023-03-07T23:58:03.636Z,5.10
